Time;durP1;ratioP1;P1;durP2;ratioP2;P2;SDS_P1;SDS_P2;PMS_P1;PMS_P2;Temp;Humidity;BMP_temperature;BMP_pressure;BME280_temperature;BME280_humidity;BME280_pressure;Samples;Min_cycle;Max_cycle;Signal;HPM_P1;HPM_P2
2024/04/04 00:00:47;;;;;;;13.10;6.55;;;359.20;1971.20;;;;;;5079795;28;20026;-78
2024/04/04 00:03:14;;;;;;;8.10;5.10;;;359.20;1945.60;;;;;;5075299;28;20024;-75
2024/04/04 00:05:39;;;;;;;9.57;5.65;;;384.00;1945.60;;;;;;5082565;28;20073;-75
2024/04/04 00:08:06;;;;;;;16.80;8.15;;;359.20;1945.60;;;;;;5078518;28;20013;-74
2024/04/04 00:10:31;;;;;;;10.85;4.28;;;359.20;1920.00;;;;;;5073728;28;20037;-75
2024/04/04 00:12:59;;;;;;;5.88;3.22;;;359.20;1920.00;;;;;;5081317;28;20112;-78
2024/04/04 00:15:26;;;;;;;6.32;2.92;;;359.30;1920.00;;;;;;5074709;28;20025;-76
2024/04/04 00:17:51;;;;;;;5.40;2.80;;;359.20;1945.60;;;;;;5071577;28;20064;-75
2024/04/04 00:20:17;;;;;;;15.27;8.20;;;359.10;1971.20;;;;;;5080993;28;20056;-78
2024/04/04 00:22:44;;;;;;;16.40;10.05;;;359.00;1971.20;;;;;;5078894;28;20024;-78
2024/04/04 00:25:10;;;;;;;10.25;4.70;;;359.10;1920.00;;;;;;5101369;28;20047;-77
2024/04/04 00:27:36;;;;;;;9.07;5.57;;;359.20;1894.40;;;;;;5093284;28;20111;-75
2024/04/04 00:30:02;;;;;;;8.55;4.10;;;359.20;1920.00;;;;;;5091843;28;20039;-78
2024/04/04 00:32:28;;;;;;;5.65;3.40;;;359.20;1920.00;;;;;;5103056;28;20024;-75
2024/04/04 00:34:54;;;;;;;7.90;4.95;;;359.20;1920.00;;;;;;5097370;28;20396;-74
2024/04/04 00:37:20;;;;;;;15.25;6.90;;;359.30;1920.00;;;;;;5077936;28;20392;-76
2024/04/04 00:39:46;;;;;;;17.52;10.77;;;359.20;1945.60;;;;;;5096766;28;20036;-75
2024/04/04 00:42:12;;;;;;;10.02;5.80;;;384.00;1945.60;;;;;;5097538;28;20396;-74
2024/04/04 00:44:38;;;;;;;12.70;6.70;;;359.30;1945.60;;;;;;5099374;28;20046;-73
2024/04/04 00:47:04;;;;;;;7.45;3.85;;;359.30;1945.60;;;;;;5106218;28;20035;-77
2024/04/04 00:49:30;;;;;;;9.07;5.95;;;359.20;1971.20;;;;;;5107116;28;20040;-74
2024/04/04 00:51:56;;;;;;;15.15;8.93;;;359.00;2022.40;;;;;;5104602;28;20114;-75
2024/04/04 00:54:22;;;;;;;15.13;10.05;;;358.90;2048.00;;;;;;5106391;28;20185;-76
2024/04/04 00:56:49;;;;;;;11.43;7.30;;;358.90;2048.00;;;;;;5102238;28;20459;-77
2024/04/04 00:59:15;;;;;;;12.57;7.47;;;358.80;2022.40;;;;;;5081713;28;20040;-75
2024/04/04 01:01:41;;;;;;;5.93;4.22;;;358.90;1996.80;;;;;;5107338;28;20012;-74
2024/04/04 01:04:09;;;;;;;6.32;4.10;;;358.50;2073.60;;;;;;5106141;28;20448;-79
2024/04/04 01:06:35;;;;;;;10.63;5.57;;;358.70;1996.80;;;;;;5067635;28;20077;-75
2024/04/04 01:09:02;;;;;;;11.27;5.72;;;358.70;1996.80;;;;;;5095704;28;20125;-75
2024/04/04 01:11:27;;;;;;;10.80;4.63;;;358.70;2022.40;;;;;;5107357;28;20016;-74
2024/04/04 01:13:54;;;;;;;8.60;5.05;;;358.70;1996.80;;;;;;5106048;28;20114;-75
2024/04/04 01:16:19;;;;;;;6.35;3.95;;;358.80;1996.80;;;;;;5090629;28;20032;-75
2024/04/04 01:18:46;;;;;;;9.13;5.75;;;358.70;2048.00;;;;;;5108590;28;20216;-74
2024/04/04 01:21:12;;;;;;;6.22;3.38;;;358.70;2048.00;;;;;;5109722;28;20024;-74
2024/04/04 01:23:39;;;;;;;5.55;3.22;;;358.70;2073.60;;;;;;5095691;28;20020;-74
2024/04/04 01:26:06;;;;;;;4.88;3.10;;;358.50;2099.20;;;;;;5091653;28;20078;-75
2024/04/04 01:28:33;;;;;;;5.53;3.00;;;333.70;2124.80;;;;;;5092139;28;20028;-76
2024/04/04 01:30:59;;;;;;;4.47;2.35;;;333.60;2124.80;;;;;;5091835;28;20024;-75
2024/04/04 01:33:25;;;;;;;5.50;3.03;;;358.40;2048.00;;;;;;5091599;28;20809;-74
2024/04/04 01:35:51;;;;;;;4.63;2.65;;;358.70;1920.00;;;;;;5091269;28;20052;-77
2024/04/04 01:38:17;;;;;;;6.35;3.45;;;358.70;1945.60;;;;;;5068929;28;20438;-76
2024/04/04 01:40:42;;;;;;;4.95;1.95;;;359.00;1868.80;;;;;;5091126;28;20458;-78
2024/04/04 01:43:09;;;;;;;10.25;3.58;;;358.70;1996.80;;;;;;5090179;28;20085;-79
2024/04/04 01:45:34;;;;;;;4.05;1.70;;;358.90;1843.20;;;;;;5091297;28;20016;-75
2024/04/04 01:48:00;;;;;;;14.15;8.90;;;359.00;1894.40;;;;;;5091673;28;20069;-78
2024/04/04 01:50:26;;;;;;;20.40;11.43;;;359.00;1868.80;;;;;;5090890;28;20327;-75
2024/04/04 01:52:52;;;;;;;6.95;3.60;;;359.00;1920.00;;;;;;5091799;28;20542;-75
2024/04/04 01:55:18;;;;;;;8.60;4.03;;;359.00;1894.40;;;;;;5091151;28;20416;-77
2024/04/04 01:57:43;;;;;;;8.77;6.13;;;359.00;1945.60;;;;;;5091595;28;20027;-78
2024/04/04 02:00:10;;;;;;;4.65;2.60;;;359.00;1920.00;;;;;;5090846;28;20027;-75
2024/04/04 02:02:36;;;;;;;7.97;3.47;;;359.00;1894.40;;;;;;5091473;28;20024;-76
2024/04/04 02:05:01;;;;;;;14.75;7.28;;;359.10;1843.20;;;;;;5090245;28;20028;-76
2024/04/04 02:07:27;;;;;;;4.68;2.97;;;359.10;1843.20;;;;;;5091142;28;20028;-76
2024/04/04 02:09:53;;;;;;;7.97;3.90;;;359.20;1817.60;;;;;;5090634;28;20033;-76
2024/04/04 02:12:19;;;;;;;9.95;7.05;;;384.00;1740.80;;;;;;5091199;28;20099;-82
2024/04/04 02:14:45;;;;;;;3.95;2.67;;;384.10;1715.20;;;;;;5090563;28;20136;-75
2024/04/04 02:17:14;;;;;;;4.03;2.55;;;384.30;1689.60;;;;;;5091329;28;20095;-79
2024/04/04 02:19:39;;;;;;;2.65;1.45;;;384.40;1664.00;;;;;;5089802;28;20016;-75
2024/04/04 02:22:06;;;;;;;4.28;1.65;;;384.60;1638.40;;;;;;5090957;28;20020;-78
2024/04/04 02:24:31;;;;;;;13.40;6.15;;;384.60;1638.40;;;;;;5069131;28;20024;-76
2024/04/04 02:26:58;;;;;;;2.10;1.40;;;384.80;1612.80;;;;;;5090203;28;20381;-79
2024/04/04 02:29:24;;;;;;;7.60;1.92;;;384.80;1638.40;;;;;;5089794;28;20035;-76
2024/04/04 02:31:50;;;;;;;7.50;2.50;;;384.70;1638.40;;;;;;5091042;28;20099;-77
2024/04/04 02:34:17;;;;;;;4.57;2.15;;;384.90;1612.80;;;;;;5070489;28;20043;-79
2024/04/04 02:36:42;;;;;;;4.25;2.30;;;384.90;1587.20;;;;;;5072551;28;20474;-79
2024/04/04 02:39:13;;;;;;;3.67;1.60;;;384.90;1587.20;;;;;;5067103;28;20047;-78
2024/04/04 02:41:40;;;;;;;2.42;1.30;;;384.90;1638.40;;;;;;5089856;28;20016;-78
2024/04/04 02:44:06;;;;;;;47.90;32.55;;;384.70;1689.60;;;;;;5090098;28;20020;-78
2024/04/04 02:46:32;;;;;;;9.60;5.78;;;384.40;1689.60;;;;;;5090469;28;20024;-78
2024/04/04 02:48:58;;;;;;;4.00;2.50;;;384.60;1689.60;;;;;;5067314;28;20119;-78
2024/04/04 02:51:25;;;;;;;3.15;1.98;;;384.60;1664.00;;;;;;5087275;28;20080;-77
2024/04/04 02:53:51;;;;;;;2.85;1.27;;;384.70;1664.00;;;;;;5076853;28;20055;-78
2024/04/04 02:56:17;;;;;;;2.85;1.50;;;384.70;1638.40;;;;;;5090287;28;20024;-77
2024/04/04 02:58:43;;;;;;;2.45;1.25;;;384.70;1638.40;;;;;;5090160;28;20516;-76
2024/04/04 03:01:09;;;;;;;2.45;1.40;;;384.70;1664.00;;;;;;5089700;28;20523;-81
2024/04/04 03:03:34;;;;;;;4.07;1.55;;;384.70;1715.20;;;;;;5089628;28;20047;-79
2024/04/04 03:06:00;;;;;;;7.57;2.20;;;384.50;1740.80;;;;;;5089803;28;20069;-76
2024/04/04 03:08:26;;;;;;;3.33;1.58;;;384.60;1740.80;;;;;;5089909;28;20035;-74
2024/04/04 03:10:52;;;;;;;2.50;1.50;;;384.50;1715.20;;;;;;5089531;28;20048;-77
2024/04/04 03:13:18;;;;;;;3.08;1.50;;;384.40;1715.20;;;;;;5089786;28;20077;-78
2024/04/04 03:15:54;;;;;;;2.67;1.45;;;384.40;1715.20;;;;;;5089455;28;20020;-77
2024/04/04 03:18:20;;;;;;;2.75;1.40;;;384.40;1689.60;;;;;;5089843;28;20493;-77
2024/04/04 03:20:46;;;;;;;4.05;1.60;;;384.50;1689.60;;;;;;5089299;28;20031;-78
2024/04/04 03:23:11;;;;;;;10.88;5.53;;;384.50;1715.20;;;;;;5089845;28;20028;-78
2024/04/04 03:25:37;;;;;;;7.82;4.18;;;384.50;1715.20;;;;;;5089148;28;20031;-80
2024/04/04 03:28:03;;;;;;;12.48;7.05;;;384.50;1715.20;;;;;;5089672;28;20458;-79
2024/04/04 03:30:29;;;;;;;4.72;2.15;;;384.50;1715.20;;;;;;5089095;28;20674;-78
2024/04/04 03:32:55;;;;;;;2.85;2.00;;;384.50;1715.20;;;;;;5089463;28;20027;-75
2024/04/04 03:35:21;;;;;;;3.25;1.60;;;384.40;1766.40;;;;;;5088787;28;20398;-76
2024/04/04 03:37:46;;;;;;;2.85;1.60;;;384.30;1740.80;;;;;;5089521;28;20089;-80
2024/04/04 03:40:12;;;;;;;3.38;1.48;;;384.40;1715.20;;;;;;5088712;28;20043;-78
2024/04/04 03:42:38;;;;;;;2.85;1.70;;;384.40;1715.20;;;;;;5069948;28;20029;-80
2024/04/04 03:45:04;;;;;;;3.40;1.52;;;384.50;1715.20;;;;;;5089088;28;20458;-75
2024/04/04 03:47:36;;;;;;;7.45;1.98;;;384.40;1740.80;;;;;;5089396;28;20016;-75
2024/04/04 03:50:02;;;;;;;4.10;1.20;;;384.40;1715.20;;;;;;5066900;28;20036;-78
2024/04/04 03:52:29;;;;;;;3.25;1.20;;;384.50;1689.60;;;;;;5068620;28;20052;-75
2024/04/04 03:54:55;;;;;;;2.45;1.27;;;384.60;1689.60;;;;;;5088069;28;20052;-75
2024/04/04 03:57:21;;;;;;;4.32;1.80;;;384.60;1715.20;;;;;;5089317;28;20016;-76
2024/04/04 03:59:46;;;;;;;3.25;1.85;;;384.60;1689.60;;;;;;5087385;28;20036;-77
2024/04/04 04:02:12;;;;;;;3.47;2.55;;;384.60;1715.20;;;;;;5088291;28;20096;-75
2024/04/04 04:04:38;;;;;;;3.15;1.60;;;384.70;1715.20;;;;;;5087351;28;20107;-75
2024/04/04 04:07:05;;;;;;;3.10;1.55;;;384.70;1689.60;;;;;;5088150;28;20111;-79
2024/04/04 04:09:31;;;;;;;2.53;1.50;;;384.70;1689.60;;;;;;5087747;28;20028;-79
2024/04/04 04:11:56;;;;;;;2.70;1.40;;;384.70;1689.60;;;;;;5088442;28;20031;-78
2024/04/04 04:14:22;;;;;;;4.82;1.70;;;384.70;1689.60;;;;;;5087772;28;20377;-76
2024/04/04 04:16:48;;;;;;;5.28;1.60;;;384.70;1689.60;;;;;;5088134;28;20024;-75
2024/04/04 04:19:14;;;;;;;2.15;1.17;;;384.70;1664.00;;;;;;5087726;28;20569;-76
2024/04/04 04:21:40;;;;;;;3.22;1.83;;;384.70;1689.60;;;;;;5088255;28;20016;-76
2024/04/04 04:24:06;;;;;;;2.53;1.52;;;384.80;1664.00;;;;;;5070187;28;20028;-78
2024/04/04 04:26:32;;;;;;;1.90;1.35;;;384.80;1664.00;;;;;;5089319;28;20020;-76
2024/04/04 04:28:59;;;;;;;3.15;1.45;;;384.90;1664.00;;;;;;5088170;28;20499;-78
2024/04/04 04:31:25;;;;;;;4.25;2.38;;;384.90;1689.60;;;;;;5089258;28;20020;-77
2024/04/04 04:33:52;;;;;;;3.97;2.15;;;384.90;1740.80;;;;;;5088023;28;20575;-79
2024/04/04 04:36:18;;;;;;;4.60;1.92;;;384.80;1740.80;;;;;;5077568;28;20052;-75
2024/04/04 04:38:44;;;;;;;3.97;1.40;;;384.70;1766.40;;;;;;5084834;28;20469;-74
2024/04/04 04:41:10;;;;;;;9.10;6.30;;;384.80;1740.80;;;;;;5068955;28;20134;-79
2024/04/04 04:43:37;;;;;;;6.30;3.03;;;384.60;1740.80;;;;;;5088186;28;20029;-79
2024/04/04 04:46:05;;;;;;;15.07;2.83;;;384.60;1740.80;;;;;;5088846;28;20469;-78
2024/04/04 04:48:31;;;;;;;3.60;2.05;;;384.60;1740.80;;;;;;5088005;28;20035;-78
2024/04/04 04:50:56;;;;;;;3.67;1.80;;;384.60;1740.80;;;;;;5085024;28;20104;-76
2024/04/04 04:53:22;;;;;;;4.35;1.70;;;384.60;1715.20;;;;;;5089911;28;20047;-76
2024/04/04 04:55:48;;;;;;;3.13;1.40;;;384.60;1740.80;;;;;;5071964;28;20024;-77
2024/04/04 04:58:14;;;;;;;3.63;1.73;;;384.70;1715.20;;;;;;5089461;28;20039;-76
2024/04/04 05:00:40;;;;;;;4.97;2.00;;;384.80;1715.20;;;;;;5092846;28;20351;-76
2024/04/04 05:03:06;;;;;;;4.50;2.53;;;384.90;1715.20;;;;;;5080904;28;20493;-75
2024/04/04 05:05:32;;;;;;;6.53;2.47;;;384.90;1766.40;;;;;;5092572;28;20628;-75
2024/04/04 05:07:58;;;;;;;5.63;2.05;;;384.90;1766.40;;;;;;5092025;28;20024;-77
2024/04/04 05:10:23;;;;;;;10.10;1.98;;;409.60;1792.00;;;;;;5092643;28;20028;-75
2024/04/04 05:12:49;;;;;;;4.32;2.10;;;409.60;1817.60;;;;;;5072881;28;20385;-74
2024/04/04 05:15:15;;;;;;;4.63;2.42;;;409.60;1792.00;;;;;;5074274;28;20024;-77
2024/04/04 05:17:41;;;;;;;4.38;2.45;;;384.90;1766.40;;;;;;5078139;28;20035;-76
2024/04/04 05:20:07;;;;;;;20.83;3.10;;;409.60;1766.40;;;;;;5092158;28;20034;-74
2024/04/04 05:22:33;;;;;;;26.42;3.10;;;409.60;1817.60;;;;;;5094173;28;20423;-75
2024/04/04 05:24:58;;;;;;;6.10;2.17;;;409.60;1817.60;;;;;;5101033;28;20028;-77
2024/04/04 05:27:24;;;;;;;4.88;1.83;;;409.90;1766.40;;;;;;5091723;28;20047;-75
2024/04/04 05:29:53;;;;;;;4.13;1.90;;;410.10;1766.40;;;;;;5091703;28;20533;-76
2024/04/04 05:32:19;;;;;;;7.32;3.08;;;410.30;1766.40;;;;;;5091457;28;20119;-76
2024/04/04 05:34:48;;;;;;;6.07;2.85;;;435.20;1740.80;;;;;;5091220;28;20047;-76
2024/04/04 05:37:14;;;;;;;5.20;3.30;;;435.40;1715.20;;;;;;5073350;28;20124;-74
2024/04/04 05:39:41;;;;;;;5.10;3.88;;;435.80;1740.80;;;;;;5073165;28;20036;-77
2024/04/04 05:42:07;;;;;;;11.50;6.30;;;460.90;1715.20;;;;;;5091118;28;20137;-75
2024/04/04 05:44:33;;;;;;;5.57;3.35;;;486.40;1664.00;;;;;;5091770;28;20098;-75
2024/04/04 05:46:58;;;;;;;5.53;3.60;;;461.50;1664.00;;;;;;5091063;28;20065;-77
2024/04/04 05:49:24;;;;;;;6.45;3.28;;;486.90;1587.20;;;;;;5091362;28;20499;-75
2024/04/04 05:51:50;;;;;;;5.93;3.58;;;512.60;1536.00;;;;;;5091322;28;20027;-77
2024/04/04 05:54:16;;;;;;;11.57;6.20;;;538.10;1510.40;;;;;;5091195;28;20486;-76
2024/04/04 05:56:42;;;;;;;36.95;23.20;;;512.60;1536.00;;;;;;5091214;28;20493;-79
2024/04/04 05:59:08;;;;;;;31.45;19.63;;;512.40;1638.40;;;;;;5072664;28;20043;-77
2024/04/04 06:01:34;;;;;;;21.77;15.32;;;512.20;1638.40;;;;;;5090943;28;20024;-79
2024/04/04 06:03:59;;;;;;;11.25;7.32;;;512.40;1612.80;;;;;;5090847;28;20100;-80
2024/04/04 06:06:25;;;;;;;12.07;8.02;;;538.00;1536.00;;;;;;5091184;28;20076;-78
2024/04/04 06:08:52;;;;;;;9.20;6.15;;;538.50;1484.80;;;;;;5090771;28;20093;-76
2024/04/04 06:11:18;;;;;;;7.35;5.82;;;615.00;1356.80;;;;;;5091089;28;20485;-79
2024/04/04 06:13:44;;;;;;;12.30;8.80;;;691.30;1254.40;;;;;;5072538;28;20071;-80
2024/04/04 06:16:09;;;;;;;11.13;7.97;;;666.50;1305.60;;;;;;5091017;28;20099;-81
2024/04/04 06:18:35;;;;;;;8.70;6.20;;;717.10;1254.40;;;;;;5090085;28;20034;-81
2024/04/04 06:21:01;;;;;;;9.90;6.93;;;743.00;1177.60;;;;;;5091069;28;20032;-81
2024/04/04 06:23:29;;;;;;;7.35;6.03;;;768.80;1126.40;;;;;;5090383;28;20024;-79
2024/04/04 06:25:55;;;;;;;10.10;7.72;;;819.40;1126.40;;;;;;5090923;28;20473;-81
2024/04/04 06:28:21;;;;;;;8.77;7.07;;;820.10;1075.20;;;;;;5090613;28;20056;-79
2024/04/04 06:30:46;;;;;;;7.07;6.22;;;819.90;1100.80;;;;;;5090613;28;20565;-82
2024/04/04 06:33:12;;;;;;;9.40;8.48;;;845.20;1100.80;;;;;;5090489;28;20023;-78
2024/04/04 06:35:38;;;;;;;18.35;15.35;;;845.60;1075.20;;;;;;5090174;28;20463;-81
2024/04/04 06:38:04;;;;;;;17.38;13.70;;;845.20;1075.20;;;;;;5090313;28;20107;-79
2024/04/04 06:40:32;;;;;;;15.27;12.73;;;870.70;1049.60;;;;;;5088834;28;20027;-80
2024/04/04 06:42:58;;;;;;;15.85;10.77;;;870.40;1075.20;;;;;;5089979;28;20024;-82
2024/04/04 06:45:24;;;;;;;15.13;12.60;;;896.20;998.40;;;;;;5090707;28;20045;-81
2024/04/04 06:47:57;;;;;;;21.25;18.27;;;;;;;;;;5090070;28;20105;-78
2024/04/04 06:50:26;;;;;;;;;;;947.40;972.80;;;;;;5090633;28;20024;-77
2024/04/04 06:52:53;;;;;;;19.75;15.43;;;922.00;972.80;;;;;;5089731;28;19911;-77
2024/04/04 06:55:19;;;;;;;8.90;7.35;;;922.10;972.80;;;;;;5090245;28;20073;-76
2024/04/04 06:57:45;;;;;;;7.35;5.30;;;871.10;998.40;;;;;;5087914;28;20063;-78
2024/04/04 07:00:11;;;;;;;6.78;6.03;;;896.20;972.80;;;;;;5085359;28;20032;-78
2024/04/04 07:02:41;;;;;;;6.25;5.18;;;921.90;972.80;;;;;;5078810;28;20040;-77
2024/04/04 07:05:08;;;;;;;5.93;5.43;;;871.10;998.40;;;;;;5090073;28;20105;-80
2024/04/04 07:07:35;;;;;;;4.78;4.15;;;896.10;998.40;;;;;;5089471;28;20034;-81
2024/04/04 07:10:04;;;;;;;5.30;4.85;;;896.10;972.80;;;;;;5090279;28;20028;-82
2024/04/04 07:12:30;;;;;;;5.03;4.53;;;896.60;972.80;;;;;;5089452;28;20020;-83
2024/04/04 07:14:56;;;;;;;5.05;4.22;;;921.80;947.20;;;;;;5089273;28;20028;-82
2024/04/04 07:17:23;;;;;;;4.90;3.78;;;922.00;921.60;;;;;;5089409;28;20033;-79
2024/04/04 07:19:55;;;;;;;4.53;4.10;;;896.10;947.20;;;;;;5089589;28;20050;-79
2024/04/04 07:22:21;;;;;;;4.15;3.70;;;871.10;972.80;;;;;;5089487;28;20008;-78
2024/04/04 07:24:48;;;;;;;5.82;3.70;;;871.10;972.80;;;;;;5089375;28;20059;-77
2024/04/04 07:27:14;;;;;;;4.50;4.10;;;896.80;921.60;;;;;;5089559;28;20024;-76
2024/04/04 07:29:42;;;;;;;5.07;4.15;;;896.80;921.60;;;;;;5089533;28;20382;-77
2024/04/04 07:32:08;;;;;;;5.60;5.10;;;921.60;947.20;;;;;;5089184;28;20028;-79
2024/04/04 07:34:35;;;;;;;4.82;4.22;;;922.50;921.60;;;;;;5089273;28;20063;-78
2024/04/04 07:37:01;;;;;;;13.18;6.53;;;947.80;896.00;;;;;;5089425;28;20024;-77
2024/04/04 07:39:27;;;;;;;5.75;4.43;;;922.50;921.60;;;;;;5089913;28;20481;-79
2024/04/04 07:41:53;;;;;;;5.35;4.35;;;947.40;896.00;;;;;;5089421;28;20020;-77
2024/04/04 07:44:19;;;;;;;4.45;4.03;;;947.90;896.00;;;;;;5089654;28;20065;-79
2024/04/04 07:46:45;;;;;;;7.53;3.88;;;948.00;896.00;;;;;;5088737;28;20103;-78
2024/04/04 07:49:11;;;;;;;4.38;4.00;;;948.00;896.00;;;;;;5089467;28;20039;-76
2024/04/04 07:51:37;;;;;;;4.90;4.40;;;947.70;896.00;;;;;;5088788;28;20047;-77
2024/04/04 07:54:03;;;;;;;6.60;4.97;;;947.40;896.00;;;;;;5089450;28;20016;-77
2024/04/04 07:56:29;;;;;;;6.30;4.70;;;947.30;896.00;;;;;;5088956;28;20021;-77
2024/04/04 07:58:55;;;;;;;5.63;4.28;;;947.50;896.00;;;;;;5089177;28;20024;-77
2024/04/04 08:01:21;;;;;;;8.48;5.25;;;947.60;896.00;;;;;;5088941;28;20020;-78
2024/04/04 08:03:49;;;;;;;5.82;5.22;;;948.00;896.00;;;;;;5088633;28;20028;-77
2024/04/04 08:06:15;;;;;;;6.68;4.90;;;947.20;921.60;;;;;;5088487;28;20047;-77
2024/04/04 08:08:42;;;;;;;34.38;8.15;;;896.90;921.60;;;;;;5089217;28;20346;-83
2024/04/04 08:11:11;;;;;;;8.25;4.88;;;922.00;947.20;;;;;;5088263;28;20038;-83
2024/04/04 08:13:41;;;;;;;5.35;4.47;;;947.20;921.60;;;;;;5088935;28;20047;-82
2024/04/04 08:16:08;;;;;;;6.70;3.90;;;947.70;921.60;;;;;;5088306;28;20016;-82
2024/04/04 08:18:34;;;;;;;5.93;4.47;;;947.40;921.60;;;;;;5089144;28;20401;-77
2024/04/04 08:21:00;;;;;;;5.90;3.80;;;947.60;896.00;;;;;;5088781;28;20046;-82
2024/04/04 08:23:27;;;;;;;6.07;4.40;;;948.00;896.00;;;;;;5088553;28;20025;-77
2024/04/04 08:25:59;;;;;;;5.35;4.93;;;972.90;921.60;;;;;;5087618;28;20430;-79
2024/04/04 08:28:26;;;;;;;5.68;3.90;;;972.80;921.60;;;;;;5088266;28;20017;-77
2024/04/04 08:31:02;;;;;;;4.65;3.97;;;947.40;896.00;;;;;;5088952;28;20032;-77
2024/04/04 08:33:30;;;;;;;4.53;4.13;;;947.50;896.00;;;;;;5086548;28;20017;-78
2024/04/04 08:35:57;;;;;;;4.57;4.20;;;948.10;896.00;;;;;;5098628;28;20055;-77
2024/04/04 08:38:23;;;;;;;5.32;4.60;;;947.80;896.00;;;;;;5088943;28;20015;-81
2024/04/04 08:40:49;;;;;;;9.00;4.18;;;922.50;921.60;;;;;;5092737;28;20035;-81
2024/04/04 08:43:18;;;;;;;4.40;3.97;;;922.40;921.60;;;;;;5075402;28;20382;-81
2024/04/04 08:45:48;;;;;;;4.82;4.38;;;896.80;921.60;;;;;;5072720;28;20431;-80
2024/04/04 08:48:16;;;;;;;6.45;4.65;;;896.70;921.60;;;;;;5070961;28;20108;-81
2024/04/04 08:50:45;;;;;;;4.05;3.67;;;845.40;998.40;;;;;;5067539;28;20040;-81
2024/04/04 08:53:13;;;;;;;6.55;4.22;;;;;;;;;;5076040;28;20020;-80
2024/04/04 08:55:39;;;;;;;6.60;3.28;;;794.50;1049.60;;;;;;5091795;28;20659;-80
2024/04/04 08:58:07;;;;;;;3.95;2.45;;;768.90;1075.20;;;;;;5090683;28;20059;-81
2024/04/04 09:00:33;;;;;;;4.50;2.90;;;742.60;1126.40;;;;;;5079129;28;20020;-80
2024/04/04 09:03:00;;;;;;;4.13;2.15;;;717.20;1126.40;;;;;;5074795;28;20033;-80
2024/04/04 09:05:26;;;;;;;5.70;2.40;;;691.70;1152.00;;;;;;5074975;28;20028;-80
2024/04/04 09:07:52;;;;;;;4.63;2.38;;;666.30;1177.60;;;;;;5077535;28;20103;-79
2024/04/04 09:10:18;;;;;;;4.22;2.28;;;666.20;1203.20;;;;;;5072435;28;20041;-79
2024/04/04 09:12:44;;;;;;;4.60;2.05;;;665.60;1228.80;;;;;;5075475;28;20554;-81
2024/04/04 09:15:14;;;;;;;7.20;2.63;;;640.60;1228.80;;;;;;5108111;28;20473;-81
2024/04/04 09:17:40;;;;;;;5.18;2.50;;;640.40;1228.80;;;;;;5082258;28;20035;-80
2024/04/04 09:20:06;;;;;;;5.32;2.40;;;640.00;1254.40;;;;;;5087487;28;20473;-80
2024/04/04 09:22:32;;;;;;;12.52;3.90;;;640.10;1254.40;;;;;;5080061;28;20513;-79
2024/04/04 09:24:59;;;;;;;3.20;2.10;;;640.20;1254.40;;;;;;5081171;28;20043;-79
2024/04/04 09:27:25;;;;;;;4.43;2.80;;;640.50;1280.00;;;;;;5070724;28;20064;-79
2024/04/04 09:29:52;;;;;;;7.40;2.53;;;640.20;1254.40;;;;;;5078308;28;20033;-80
2024/04/04 09:32:21;;;;;;;5.07;2.28;;;640.30;1228.80;;;;;;5068011;28;20040;-79
2024/04/04 09:34:48;;;;;;;4.25;2.70;;;615.30;1254.40;;;;;;5079578;28;20566;-79
2024/04/04 09:37:14;;;;;;;3.53;1.83;;;614.90;1280.00;;;;;;5070972;28;20028;-79
2024/04/04 09:39:43;;;;;;;3.60;2.10;;;615.00;1254.40;;;;;;5091293;28;20035;-80
2024/04/04 09:42:09;;;;;;;5.15;2.05;;;615.30;1254.40;;;;;;5091299;28;20009;-79
2024/04/04 09:44:36;;;;;;;7.32;2.30;;;640.00;1280.00;;;;;;5091714;28;20024;-79
2024/04/04 09:47:04;;;;;;;5.72;2.58;;;615.30;1280.00;;;;;;5091428;28;20020;-80
2024/04/04 09:49:31;;;;;;;5.43;2.40;;;640.00;1254.40;;;;;;5091488;28;20028;-79
2024/04/04 09:52:01;;;;;;;4.38;2.10;;;615.20;1280.00;;;;;;5089856;28;20047;-79
2024/04/04 09:54:29;;;;;;;3.53;2.03;;;640.10;1254.40;;;;;;5073397;28;20409;-79
2024/04/04 09:56:56;;;;;;;2.53;1.80;;;615.30;1254.40;;;;;;5072679;28;20016;-80
2024/04/04 09:59:26;;;;;;;5.50;2.35;;;615.30;1254.40;;;;;;5091542;28;20051;-79
2024/04/04 10:01:52;;;;;;;7.00;2.28;;;615.30;1254.40;;;;;;5072973;28;20504;-79
2024/04/04 10:04:19;;;;;;;5.75;2.10;;;615.30;1254.40;;;;;;5090893;28;20371;-79
2024/04/04 10:06:46;;;;;;;5.40;2.20;;;615.00;1280.00;;;;;;5091011;28;20462;-80
2024/04/04 10:09:20;;;;;;;10.25;2.63;;;640.40;1254.40;;;;;;5073047;28;20039;-79
2024/04/04 10:11:46;;;;;;;3.75;2.28;;;640.80;1203.20;;;;;;5059628;28;20032;-80
2024/04/04 10:14:19;;;;;;;6.22;2.53;;;640.60;1228.80;;;;;;5089543;28;20039;-81
2024/04/04 10:16:53;;;;;;;5.18;2.38;;;615.30;1254.40;;;;;;5089851;28;20024;-80
2024/04/04 10:19:20;;;;;;;4.90;2.15;;;615.30;1254.40;;;;;;5090343;28;20045;-79
2024/04/04 10:21:47;;;;;;;7.47;2.80;;;640.10;1254.40;;;;;;5091133;28;20377;-79
2024/04/04 10:24:26;;;;;;;5.90;2.65;;;615.20;1254.40;;;;;;5090577;28;20032;-80
2024/04/04 10:26:57;;;;;;;4.35;2.35;;;614.90;1305.60;;;;;;5089873;28;20031;-80
2024/04/04 10:29:24;;;;;;;4.05;2.25;;;614.90;1305.60;;;;;;5088614;28;20117;-78
2024/04/04 10:31:50;;;;;;;4.22;2.40;;;614.90;1280.00;;;;;;5090831;28;20018;-79
2024/04/04 10:34:16;;;;;;;4.53;2.50;;;614.90;1280.00;;;;;;5089979;28;20189;-79
2024/04/04 10:36:46;;;;;;;5.18;2.05;;;614.80;1305.60;;;;;;5091013;28;20103;-79
2024/04/04 10:39:17;;;;;;;5.32;2.70;;;614.60;1305.60;;;;;;5089997;28;20016;-80
2024/04/04 10:41:48;;;;;;;6.03;2.45;;;614.60;1305.60;;;;;;5090782;28;20024;-79
2024/04/04 10:44:21;;;;;;;5.25;2.47;;;614.90;1331.20;;;;;;5088819;28;20020;-79
2024/04/04 10:46:47;;;;;;;3.88;2.00;;;615.00;1305.60;;;;;;5088926;28;20516;-79
2024/04/04 10:49:14;;;;;;;4.18;2.33;;;615.00;1305.60;;;;;;5089006;28;20032;-79
2024/04/04 10:51:51;;;;;;;4.88;1.95;;;615.00;1305.60;;;;;;5090695;28;20019;-79
2024/04/04 10:54:19;;;;;;;4.47;2.00;;;615.00;1305.60;;;;;;5089820;28;20513;-79
2024/04/04 10:56:47;;;;;;;6.97;2.75;;;615.10;1280.00;;;;;;5090506;28;20055;-80
2024/04/04 10:59:15;;;;;;;6.25;2.50;;;615.10;1305.60;;;;;;5090055;28;20111;-80
2024/04/04 11:01:44;;;;;;;4.90;2.53;;;615.10;1305.60;;;;;;5090342;28;20023;-80
2024/04/04 11:04:11;;;;;;;3.72;2.50;;;614.80;1305.60;;;;;;5089232;28;20025;-79
2024/04/04 11:06:39;;;;;;;6.03;2.42;;;614.70;1331.20;;;;;;5071805;28;20119;-80
2024/04/04 11:09:11;;;;;;;4.53;2.15;;;614.60;1356.80;;;;;;5089544;28;20039;-80
2024/04/04 11:11:39;;;;;;;6.57;2.55;;;614.60;1331.20;;;;;;5066059;28;20017;-80
2024/04/04 11:14:05;;;;;;;5.28;2.45;;;614.60;1331.20;;;;;;5082952;28;20031;-80
2024/04/04 11:16:31;;;;;;;4.00;2.72;;;614.80;1331.20;;;;;;5090329;28;20474;-80
2024/04/04 11:18:58;;;;;;;2.67;1.90;;;614.50;1331.20;;;;;;5089429;28;20389;-80
2024/04/04 11:21:24;;;;;;;6.95;2.65;;;614.60;1331.20;;;;;;5090050;28;20462;-80
2024/04/04 11:23:50;;;;;;;8.68;4.60;;;589.60;1356.80;;;;;;5070744;28;20032;-79
2024/04/04 11:26:18;;;;;;;3.33;2.10;;;614.50;1331.20;;;;;;5089657;28;20043;-80
2024/04/04 11:28:43;;;;;;;4.07;2.25;;;614.60;1331.20;;;;;;5070644;28;20035;-79
2024/04/04 11:31:09;;;;;;;2.97;2.13;;;614.60;1331.20;;;;;;5071423;28;20032;-79
2024/04/04 11:33:35;;;;;;;3.83;2.10;;;614.70;1356.80;;;;;;5070503;28;20164;-80
2024/04/04 11:36:02;;;;;;;4.53;2.10;;;614.50;1331.20;;;;;;5088259;28;20546;-81
2024/04/04 11:38:28;;;;;;;6.38;2.40;;;614.60;1331.20;;;;;;5088015;28;20027;-80
2024/04/04 11:40:54;;;;;;;4.63;2.55;;;614.80;1331.20;;;;;;5070571;28;20453;-80
2024/04/04 11:43:23;;;;;;;3.40;1.90;;;615.10;1331.20;;;;;;5070916;28;20054;-79
2024/04/04 11:45:49;;;;;;;3.85;1.80;;;615.10;1331.20;;;;;;5069797;28;20028;-79
2024/04/04 11:48:15;;;;;;;2.38;1.83;;;614.90;1305.60;;;;;;5089333;28;20031;-80
2024/04/04 11:50:41;;;;;;;5.63;2.10;;;614.90;1305.60;;;;;;5087587;28;20020;-80
2024/04/04 11:53:09;;;;;;;6.03;2.20;;;615.10;1305.60;;;;;;5087380;28;20028;-80
2024/04/04 11:55:35;;;;;;;4.95;2.58;;;614.80;1305.60;;;;;;5087433;28;20095;-80
2024/04/04 11:58:01;;;;;;;3.03;1.98;;;614.70;1331.20;;;;;;5089437;28;20020;-79
2024/04/04 12:00:27;;;;;;;3.67;2.38;;;615.00;1305.60;;;;;;5088722;28;20093;-79
2024/04/04 12:02:53;;;;;;;3.92;1.70;;;614.80;1280.00;;;;;;5089019;28;20016;-80
2024/04/04 12:05:19;;;;;;;3.10;1.88;;;614.90;1305.60;;;;;;5088260;28;20035;-79
2024/04/04 12:07:44;;;;;;;5.55;1.95;;;614.90;1280.00;;;;;;5088790;28;20052;-79
2024/04/04 12:10:12;;;;;;;3.13;2.05;;;615.10;1280.00;;;;;;5089019;28;20031;-79
2024/04/04 12:12:38;;;;;;;3.28;1.65;;;615.20;1305.60;;;;;;5102538;28;20027;-80
2024/04/04 12:15:07;;;;;;;5.00;1.92;;;615.30;1305.60;;;;;;5088776;28;20024;-80